Time;durP1;ratioP1;P1;durP2;ratioP2;P2;SDS_P1;SDS_P2;PMS_P1;PMS_P2;Temp;Humidity;BMP_temperature;BMP_pressure;BME280_temperature;BME280_humidity;BME280_pressure;Samples;Min_cycle;Max_cycle;Signal;HPM_P1;HPM_P2
2023/11/28 06:56:03;;;;;;;3.20;2.80;;;;;;;16.96;53.29;96405.71;102983;1281;613542;-36
2023/11/28 06:58:30;;;;;;;4.40;2.60;;;;;;;17.13;53.72;96396.33;105625;1268;208865;-37
2023/11/28 07:00:58;;;;;;;3.40;2.50;;;;;;;17.19;53.95;96391.59;104700;1270;59367;-37
2023/11/28 07:03:31;;;;;;;3.30;2.50;;;;;;;17.25;53.91;96383.85;104346;1266;72916;-35
2023/11/28 07:05:59;;;;;;;4.00;2.60;;;;;;;17.30;53.88;96383.20;104354;1268;65534;-38
2023/11/28 07:08:26;;;;;;;3.60;2.60;;;;;;;17.35;53.81;96375.83;104427;1271;71453;-37
2023/11/28 07:10:54;;;;;;;5.90;2.40;;;;;;;17.38;53.71;96370.14;104419;1270;60388;-35
2023/11/28 07:13:21;;;;;;;5.30;2.80;;;;;;;17.42;53.91;96371.27;104163;1268;60332;-35
2023/11/28 07:15:48;;;;;;;7.00;2.90;;;;;;;17.45;54.01;96367.66;104414;1269;72523;-34
2023/11/28 07:18:20;;;;;;;13.00;3.00;;;;;;;17.49;54.06;96369.95;106445;1268;63940;-32
2023/11/28 07:20:48;;;;;;;5.50;2.50;;;;;;;17.51;54.39;96368.51;104719;1267;72944;-32
2023/11/28 07:23:18;;;;;;;4.80;2.80;;;;;;;17.54;54.70;96369.23;104529;1271;60082;-41
2023/11/28 07:25:52;;;;;;;5.40;2.80;;;;;;;17.56;54.76;96362.67;104590;1268;59731;-38
2023/11/28 07:28:21;;;;;;;6.40;3.10;;;;;;;17.58;54.86;96361.23;104464;1267;72092;-41
2023/11/28 07:30:48;;;;;;;7.80;3.20;;;;;;;17.61;55.17;96355.38;104848;1260;67445;-36
2023/11/28 07:33:15;;;;;;;4.60;2.80;;;;;;;17.66;55.46;96352.41;104910;1259;72888;-36
2023/11/28 07:35:43;;;;;;;8.10;3.00;;;;;;;17.72;55.63;96350.27;105488;1264;59672;-36
2023/11/28 07:38:11;;;;;;;7.70;3.00;;;;;;;17.79;56.01;96349.71;105132;1259;60020;-37
2023/11/28 07:40:40;;;;;;;6.30;2.70;;;;;;;17.85;55.85;96350.91;105390;1259;73844;-37
2023/11/28 07:43:09;;;;;;;5.70;2.80;;;;;;;17.91;56.12;96346.86;104928;1259;64562;-36
2023/11/28 07:45:36;;;;;;;4.90;2.80;;;;;;;17.96;56.20;96348.13;105398;1262;72610;-37
2023/11/28 07:48:04;;;;;;;4.00;2.70;;;;;;;18.00;56.07;96345.30;104842;1263;59732;-39
2023/11/28 07:50:32;;;;;;;5.10;2.50;;;;;;;18.05;55.93;96345.48;105291;1267;59549;-35
2023/11/28 07:52:59;;;;;;;6.10;2.90;;;;;;;18.08;56.11;96341.41;104782;1260;72999;-37
2023/11/28 07:55:26;;;;;;;4.60;2.50;;;;;;;18.11;56.18;96338.55;104988;1265;66157;-36
2023/11/28 07:58:01;;;;;;;7.50;2.70;;;;;;;18.13;56.07;96337.79;105256;1260;72595;-37
2023/11/28 08:01:16;;;;;;;3.90;2.50;;;;;;;18.17;56.04;96339.60;104672;1265;61806;-36
2023/11/28 08:03:52;;;;;;;5.30;3.00;;;;;;;18.19;55.97;96332.56;105138;1263;59999;-37
2023/11/28 08:06:35;;;;;;;3.70;2.50;;;;;;;18.21;55.56;96329.87;105392;1268;73276;-37
2023/11/28 08:09:21;;;;;;;5.50;2.70;;;;;;;18.24;55.15;96327.95;105212;1259;66101;-38
2023/11/28 08:11:55;;;;;;;4.30;2.80;;;;;;;18.26;55.04;96328.66;104886;1260;71619;-36
2023/11/28 08:14:24;;;;;;;7.30;3.30;;;;;;;18.27;54.87;96327.27;104849;1265;60175;-37
2023/11/28 08:16:53;;;;;;;4.60;2.80;;;;;;;18.29;54.67;96326.59;105114;1263;59643;-37
2023/11/28 08:19:22;;;;;;;3.60;2.40;;;;;;;18.30;54.56;96323.03;105045;1259;73035;-38
2023/11/28 08:21:49;;;;;;;3.70;2.70;;;;;;;18.32;54.52;96322.80;105666;1259;66255;-38
2023/11/28 08:24:16;;;;;;;7.20;2.50;;;;;;;18.34;54.58;96320.64;105077;1256;73093;-39
2023/11/28 08:26:44;;;;;;;4.50;2.50;;;;;;;18.35;54.38;96318.55;105713;1258;59664;-39
2023/11/28 08:29:11;;;;;;;3.30;2.50;;;;;;;18.36;54.29;96312.68;105191;1255;60017;-37
2023/11/28 08:31:39;;;;;;;4.70;2.30;;;;;;;18.38;54.36;96315.78;104923;1261;71349;-35
2023/11/28 08:34:07;;;;;;;6.70;2.40;;;;;;;18.39;54.48;96309.83;105124;1259;65164;-36
2023/11/28 08:36:34;;;;;;;5.90;2.80;;;;;;;18.41;54.62;96307.52;105480;1256;72547;-37
2023/11/28 08:39:05;;;;;;;5.80;2.50;;;;;;;18.42;54.57;96302.94;105135;1256;59593;-37
2023/11/28 08:41:32;;;;;;;3.30;2.40;;;;;;;18.43;54.79;96295.67;105431;1254;60344;-38
2023/11/28 08:44:00;;;;;;;3.70;2.60;;;;;;;18.44;54.85;96289.48;105189;1256;71824;-38
2023/11/28 08:46:30;;;;;;;6.60;2.50;;;;;;;18.46;54.83;96288.27;105217;1256;65927;-38
2023/11/28 08:48:59;;;;;;;6.00;2.60;;;;;;;18.48;54.99;96281.70;105243;1256;202484;-38
2023/11/28 08:51:32;;;;;;;5.00;2.50;;;;;;;18.49;55.09;96280.86;106274;1261;62177;-36
2023/11/28 08:54:01;;;;;;;4.10;2.60;;;;;;;18.50;55.17;96279.77;105174;1256;60933;-38
2023/11/28 08:56:31;;;;;;;4.90;2.40;;;;;;;18.51;55.29;96283.66;105006;1262;73771;-37
2023/11/28 08:58:59;;;;;;;6.10;2.50;;;;;;;18.53;55.33;96273.50;104978;1260;65071;-34
2023/11/28 09:01:26;;;;;;;4.60;2.70;;;;;;;18.54;55.41;96267.32;104970;1256;73203;-37
2023/11/28 09:03:54;;;;;;;3.30;2.30;;;;;;;18.56;55.44;96270.03;108850;1256;60940;-39
2023/11/28 09:06:22;;;;;;;4.90;2.40;;;;;;;18.58;55.46;96270.05;105395;1256;59579;-38
2023/11/28 09:08:50;;;;;;;3.70;2.50;;;;;;;18.60;55.55;96264.78;104829;1261;73020;-37
2023/11/28 09:11:18;;;;;;;4.30;2.40;;;;;;;18.61;55.49;96262.61;104862;1256;65041;-38
2023/11/28 09:13:45;;;;;;;4.10;2.70;;;;;;;18.62;55.52;96262.70;104906;1260;72611;-37
2023/11/28 09:16:13;;;;;;;3.80;2.60;;;;;;;18.63;55.58;96256.11;105051;1262;61254;-37
2023/11/28 09:18:40;;;;;;;6.00;2.40;;;;;;;18.64;55.42;96254.18;105038;1260;59655;-37
2023/11/28 09:21:08;;;;;;;3.90;2.20;;;;;;;18.65;55.41;96246.13;107714;1258;73033;-39
2023/11/28 09:23:36;;;;;;;5.60;2.40;;;;;;;18.66;55.33;96243.34;107215;1258;65924;-37
2023/11/28 09:26:03;;;;;;;3.70;2.20;;;;;;;18.67;55.28;96240.70;104975;1256;72646;-40
2023/11/28 09:28:34;;;;;;;3.20;2.50;;;;;;;18.67;55.14;96238.38;105548;1261;60751;-37
2023/11/28 09:31:01;;;;;;;3.40;2.60;;;;;;;18.68;55.14;96238.07;105127;1256;60113;-37
2023/11/28 09:33:31;;;;;;;4.40;2.80;;;;;;;18.68;55.16;96237.13;105195;1260;70686;-36
2023/11/28 09:35:59;;;;;;;4.10;2.50;;;;;;;18.69;55.20;96233.81;105377;1257;64111;-37
2023/11/28 09:38:27;;;;;;;6.40;3.00;;;;;;;18.70;55.18;96226.62;105185;1260;73212;-35
2023/11/28 09:40:54;;;;;;;6.40;2.70;;;;;;;18.70;55.07;96224.13;105031;1260;60358;-38
2023/11/28 09:43:25;;;;;;;3.30;2.70;;;;;;;18.71;54.96;96221.02;105015;1261;59651;-36
2023/11/28 09:45:55;;;;;;;5.60;3.10;;;;;;;18.71;54.86;96212.20;105130;1256;73261;-35
2023/11/28 09:48:22;;;;;;;5.20;2.80;;;;;;;18.72;54.68;96212.67;105019;1264;65249;-38
2023/11/28 09:50:50;;;;;;;4.90;2.70;;;;;;;18.72;54.61;96206.47;105162;1261;73481;-35
2023/11/28 09:53:24;;;;;;;5.10;3.00;;;;;;;18.72;54.46;96207.88;105168;1256;59626;-35
2023/11/28 09:55:58;;;;;;;3.70;2.60;;;;;;;18.73;54.39;96208.49;105096;1261;59566;-35
2023/11/28 09:58:26;;;;;;;3.10;2.60;;;;;;;18.73;54.42;96203.99;105089;1256;72763;-35
2023/11/28 10:00:56;;;;;;;7.20;3.10;;;;;;;18.75;54.49;96200.20;105160;1261;65719;-37
2023/11/28 10:03:24;;;;;;;5.70;3.10;;;;;;;18.79;54.60;96203.84;105290;1256;72651;-37
2023/11/28 10:05:55;;;;;;;4.80;3.00;;;;;;;18.82;54.94;96196.95;105006;1262;60215;-36
2023/11/28 10:08:22;;;;;;;3.50;2.80;;;;;;;18.87;55.13;96188.67;105376;1256;59843;-35
2023/11/28 10:10:53;;;;;;;5.60;3.00;;;;;;;18.92;55.04;96187.52;105177;1256;73196;-36
2023/11/28 10:13:21;;;;;;;5.60;3.40;;;;;;;18.95;55.03;96189.21;104999;1261;66089;-38
2023/11/28 10:15:51;;;;;;;5.10;2.90;;;;;;;18.99;54.88;96186.66;105015;1256;73536;-36
2023/11/28 10:18:21;;;;;;;3.50;3.00;;;;;;;19.02;54.89;96186.80;105078;1261;61232;-36
2023/11/28 10:20:49;;;;;;;5.10;3.20;;;;;;;19.04;54.79;96190.38;105041;1256;60729;-37
2023/11/28 10:23:17;;;;;;;4.90;3.40;;;;;;;19.06;54.67;96190.22;104977;1256;73087;-37
2023/11/28 10:25:45;;;;;;;5.20;3.20;;;;;;;19.07;54.62;96185.81;105080;1260;67093;-38
2023/11/28 10:28:13;;;;;;;6.80;3.40;;;;;;;19.08;54.50;96178.29;105171;1261;73334;-38
2023/11/28 10:30:40;;;;;;;3.70;3.10;;;;;;;19.08;54.39;96174.09;105468;1262;60006;-36
2023/11/28 10:33:10;;;;;;;5.90;3.50;;;;;;;19.09;54.24;96166.27;105350;1256;60584;-36
2023/11/28 10:35:42;;;;;;;5.00;3.30;;;;;;;19.10;54.08;96169.45;105679;1257;73986;-37
2023/11/28 10:38:13;;;;;;;5.50;3.40;;;;;;;19.10;54.05;96165.11;105284;1256;66992;-35
2023/11/28 10:40:48;;;;;;;5.50;4.00;;;;;;;19.10;54.13;96162.70;105441;1256;72294;-36
2023/11/28 10:43:16;;;;;;;5.30;3.70;;;;;;;19.10;54.19;96163.70;105077;1262;60048;-36
2023/11/28 10:45:44;;;;;;;5.40;3.80;;;;;;;19.11;54.41;96160.60;105603;1260;61363;-35
2023/11/28 10:48:12;;;;;;;7.00;3.40;;;;;;;19.12;54.68;96157.19;105562;1259;72213;-39
2023/11/28 10:50:41;;;;;;;9.10;3.60;;;;;;;19.13;54.76;96151.83;105552;1260;66258;-40
2023/11/28 10:53:11;;;;;;;6.00;3.50;;;;;;;19.13;54.86;96143.16;105150;1257;72607;-36
2023/11/28 10:55:51;;;;;;;6.90;3.60;;;;;;;19.15;55.01;96143.94;105458;1259;59704;-35
2023/11/28 10:58:19;;;;;;;6.80;3.50;;;;;;;19.15;55.17;96137.73;105340;1256;59576;-37
2023/11/28 11:00:52;;;;;;;6.10;3.90;;;;;;;19.16;55.26;96132.84;105250;1258;74210;-35
2023/11/28 11:03:24;;;;;;;5.10;3.60;;;;;;;19.16;55.12;96130.52;105165;1259;64996;-35
2023/11/28 11:05:54;;;;;;;5.50;3.30;;;;;;;19.16;55.01;96123.69;108293;1259;73600;-36
2023/11/28 11:08:23;;;;;;;4.60;3.60;;;;;;;19.15;54.89;96116.80;105036;1258;60794;-37
2023/11/28 11:10:50;;;;;;;4.20;3.20;;;;;;;19.14;54.70;96110.05;104980;1260;60460;-36
2023/11/28 11:13:38;;;;;;;4.60;3.60;;;;;;;19.13;54.35;96101.36;105032;1257;73786;-36
2023/11/28 11:16:22;;;;;;;4.50;3.30;;;;;;;19.10;54.24;96094.63;105096;1260;67073;-36
2023/11/28 11:18:56;;;;;;;5.60;3.50;;;;;;;19.08;53.98;96085.19;105260;1260;72575;-35
2023/11/28 11:21:40;;;;;;;5.30;4.00;;;;;;;19.07;53.86;96078.44;105798;1262;60648;-35
2023/11/28 11:24:16;;;;;;;5.50;3.40;;;;;;;19.06;53.78;96069.98;105034;1256;60581;-35
2023/11/28 11:26:49;;;;;;;4.10;3.60;;;;;;;19.04;53.72;96068.05;106115;1257;74910;-36
2023/11/28 11:29:25;;;;;;;6.30;3.30;;;;;;;19.02;53.62;96066.98;105266;1258;66310;-36
2023/11/28 11:31:58;;;;;;;5.60;3.80;;;;;;;19.01;53.52;96054.88;105364;1256;74884;-36
2023/11/28 11:34:34;;;;;;;9.20;3.70;;;;;;;19.00;53.45;96057.13;105197;1258;61788;-35
2023/11/28 11:37:17;;;;;;;4.70;3.70;;;;;;;19.00;53.45;96051.95;109171;1254;59264;-36
2023/11/28 11:39:46;;;;;;;3.80;3.40;;;;;;;18.99;53.30;96046.44;105531;1260;74862;-36
2023/11/28 11:42:19;;;;;;;4.80;3.80;;;;;;;18.98;53.28;96045.73;105587;1259;67108;-37
2023/11/28 11:44:51;;;;;;;8.50;3.70;;;;;;;18.97;53.44;96044.50;105253;1256;73540;-35
2023/11/28 11:47:23;;;;;;;4.00;3.60;;;;;;;18.96;53.53;96042.95;105133;1264;60584;-36
2023/11/28 11:49:52;;;;;;;4.90;3.60;;;;;;;18.94;53.73;96042.17;105129;1258;61576;-34
2023/11/28 11:52:20;;;;;;;5.20;4.00;;;;;;;18.92;53.81;96036.84;105329;1260;74512;-35
2023/11/28 11:54:48;;;;;;;6.70;3.60;;;;;;;18.92;53.79;96037.30;105195;1259;65657;-36
2023/11/28 11:57:16;;;;;;;8.90;3.60;;;;;;;18.90;53.84;96038.08;106986;1260;73456;-35
2023/11/28 11:59:45;;;;;;;5.80;3.90;;;;;;;18.90;53.91;96033.35;105498;1260;60511;-35
2023/11/28 12:02:13;;;;;;;5.50;3.40;;;;;;;18.89;53.75;96024.66;105485;1254;60548;-35
2023/11/28 12:04:42;;;;;;;5.90;3.70;;;;;;;18.88;53.78;96022.74;105473;1259;73040;-37
2023/11/28 12:07:13;;;;;;;5.40;3.70;;;;;;;18.87;53.82;96020.57;105569;1260;66862;-36
2023/11/28 12:09:42;;;;;;;4.10;3.40;;;;;;;18.87;53.82;96016.00;105381;1260;73411;-36
2023/11/28 12:12:12;;;;;;;5.00;3.80;;;;;;;18.85;53.96;96014.61;105440;1268;60530;-35
2023/11/28 12:14:40;;;;;;;4.60;3.70;;;;;;;18.85;53.85;96013.75;105451;1260;60389;-38
2023/11/28 12:17:08;;;;;;;6.60;3.60;;;;;;;18.84;53.97;96011.43;105499;1260;73778;-36
2023/11/28 12:19:36;;;;;;;9.00;3.90;;;;;;;18.83;54.07;95996.87;105238;1260;65894;-37
2023/11/28 12:22:05;;;;;;;4.60;3.70;;;;;;;18.81;54.01;95994.95;105424;1260;72362;-37
2023/11/28 12:24:32;;;;;;;4.80;3.70;;;;;;;18.81;53.96;95996.48;105394;1254;62466;-36
2023/11/28 12:27:01;;;;;;;6.10;3.60;;;;;;;18.81;54.04;95995.71;105395;1260;60431;-36
2023/11/28 12:29:32;;;;;;;6.20;3.60;;;;;;;18.80;54.15;95991.45;105180;1256;72558;-36
2023/11/28 12:32:00;;;;;;;5.00;3.20;;;;;;;18.80;54.19;95987.58;105335;1257;65971;-36
2023/11/28 12:34:29;;;;;;;4.30;3.20;;;;;;;18.79;54.31;95983.40;105203;1260;73695;-37
2023/11/28 12:36:57;;;;;;;3.90;3.50;;;;;;;18.78;54.31;95975.96;105348;1260;61647;-36
2023/11/28 12:39:26;;;;;;;4.50;3.40;;;;;;;18.77;54.35;95975.11;105361;1258;60354;-38
2023/11/28 12:41:56;;;;;;;4.50;3.30;;;;;;;18.77;54.39;95974.34;105207;1260;73704;-37
2023/11/28 12:44:25;;;;;;;4.40;3.30;;;;;;;18.76;54.41;95971.93;105059;1261;68595;-37
2023/11/28 12:46:54;;;;;;;4.90;3.40;;;;;;;18.76;54.48;95969.77;105254;1262;73040;-36
2023/11/28 12:49:21;;;;;;;4.30;3.70;;;;;;;18.76;54.53;95967.28;104827;1263;61517;-35
2023/11/28 12:51:49;;;;;;;7.20;3.70;;;;;;;18.76;54.74;95960.00;105007;1259;61477;-37
2023/11/28 12:54:19;;;;;;;5.90;3.50;;;;;;;18.77;54.98;95954.34;105510;1256;73718;-38
2023/11/28 12:56:52;;;;;;;5.20;3.20;;;;;;;18.77;54.93;95947.91;104852;1262;66599;-37
2023/11/28 12:59:22;;;;;;;5.80;3.40;;;;;;;18.77;55.03;95948.06;104783;1262;72432;-36
2023/11/28 13:01:53;;;;;;;8.30;3.60;;;;;;;18.77;55.10;95945.83;105472;1261;61319;-36
2023/11/28 13:04:23;;;;;;;7.70;3.50;;;;;;;18.78;55.18;95939.48;106563;1260;59661;-35
2023/11/28 13:06:52;;;;;;;4.80;3.10;;;;;;;18.78;55.38;95944.13;105162;1260;74199;-34
2023/11/28 13:09:42;;;;;;;6.40;3.40;;;;;;;18.80;55.41;95938.31;105359;1260;65774;-38
2023/11/28 13:12:10;;;;;;;7.90;3.50;;;;;;;18.80;55.51;95936.82;105080;1262;73529;-36
2023/11/28 13:14:40;;;;;;;5.20;3.60;;;;;;;18.80;55.53;95932.95;105097;1261;60549;-37
2023/11/28 13:17:08;;;;;;;5.00;3.70;;;;;;;18.80;55.69;95932.95;105847;1259;60374;-37
2023/11/28 13:19:39;;;;;;;7.60;3.50;;;;;;;18.80;55.81;95930.16;105136;1262;74634;-37
2023/11/28 13:22:07;;;;;;;5.70;3.90;;;;;;;18.80;55.99;95926.83;105350;1260;66327;-36
2023/11/28 13:24:35;;;;;;;8.60;3.50;;;;;;;18.80;56.07;95927.52;105016;1257;74207;-39
2023/11/28 13:27:04;;;;;;;6.10;3.70;;;;;;;18.81;55.91;95926.67;105148;1261;61203;-38
2023/11/28 13:29:33;;;;;;;5.80;4.10;;;;;;;18.81;55.92;95926.75;105151;1257;61426;-38
2023/11/28 13:32:05;;;;;;;3.90;3.50;;;;;;;18.80;55.81;95924.11;104952;1261;72264;-37
2023/11/28 13:34:35;;;;;;;4.10;3.30;;;;;;;18.80;55.81;95922.65;104985;1269;67117;-38
2023/11/28 13:37:04;;;;;;;5.50;3.50;;;;;;;18.79;55.69;95920.34;105075;1258;74671;-37
2023/11/28 13:39:32;;;;;;;5.10;3.20;;;;;;;18.78;55.60;95918.16;105344;1264;61809;-39
2023/11/28 13:41:59;;;;;;;7.30;3.50;;;;;;;18.76;55.58;95915.38;105143;1258;60562;-38
2023/11/28 13:44:32;;;;;;;6.40;3.50;;;;;;;18.76;55.97;95914.68;105100;1260;73608;-37
2023/11/28 13:47:06;;;;;;;5.10;3.50;;;;;;;18.75;56.44;95913.20;105229;1260;67087;-37
2023/11/28 13:49:34;;;;;;;8.20;3.40;;;;;;;18.76;56.79;95907.70;105101;1258;72352;-37
2023/11/28 13:52:02;;;;;;;8.00;3.30;;;;;;;18.76;57.14;95901.27;105382;1262;60514;-37
2023/11/28 13:54:30;;;;;;;5.10;3.50;;;;;;;18.76;57.45;95899.73;105287;1260;61016;-36
2023/11/28 13:56:57;;;;;;;5.50;3.20;;;;;;;18.76;57.75;95901.27;105440;1260;74698;-37
2023/11/28 13:59:29;;;;;;;5.40;3.10;;;;;;;18.76;57.92;95894.77;105264;1259;66863;-36
2023/11/28 14:01:57;;;;;;;3.70;3.00;;;;;;;18.76;57.97;95891.13;105129;1259;73760;-37
2023/11/28 14:04:26;;;;;;;4.70;3.30;;;;;;;18.76;57.84;95893.67;105846;1262;60439;-36
2023/11/28 14:06:53;;;;;;;5.70;3.50;;;;;;;18.74;57.80;95889.27;105502;1258;60438;-35
2023/11/28 14:09:22;;;;;;;6.70;3.10;;;;;;;18.74;57.71;95893.30;105196;1257;74575;-35
2023/11/28 14:11:50;;;;;;;3.50;3.00;;;;;;;18.74;57.54;95891.05;107846;1257;66632;-36
2023/11/28 14:14:17;;;;;;;4.90;3.10;;;;;;;18.73;57.49;95886.02;106910;1259;73961;-37
2023/11/28 14:16:45;;;;;;;5.90;3.20;;;;;;;18.72;57.47;95886.80;105363;1260;60402;-37
2023/11/28 14:19:13;;;;;;;3.90;3.10;;;;;;;18.72;57.40;95883.86;105511;1257;60418;-37
2023/11/28 14:21:43;;;;;;;4.80;3.30;;;;;;;18.71;57.28;95883.70;105347;1260;74620;-37
2023/11/28 14:24:12;;;;;;;6.60;3.50;;;;;;;18.70;57.27;95879.21;105162;1263;66039;-36
2023/11/28 14:26:44;;;;;;;4.50;3.30;;;;;;;18.69;57.21;95880.06;105337;1257;73364;-35
2023/11/28 14:29:17;;;;;;;4.90;3.10;;;;;;;18.68;56.98;95874.72;105377;1261;60554;-34
2023/11/28 14:32:05;;;;;;;6.50;3.60;;;;;;;18.68;56.92;95868.13;105356;1258;60860;-39
2023/11/28 14:34:36;;;;;;;5.40;3.20;;;;;;;18.68;57.01;95864.58;105251;1257;74981;-35
2023/11/28 14:37:04;;;;;;;4.50;3.40;;;;;;;18.69;56.99;95861.93;105480;1261;67029;-36
2023/11/28 14:39:31;;;;;;;4.90;3.20;;;;;;;18.68;56.99;95863.41;105588;1258;72814;-36
2023/11/28 14:41:58;;;;;;;3.40;2.90;;;;;;;18.68;56.88;95858.52;105534;1267;60515;-34
2023/11/28 14:44:26;;;;;;;3.70;2.80;;;;;;;18.66;56.73;95863.73;105403;1256;61177;-34
2023/11/28 14:46:54;;;;;;;8.80;3.10;;;;;;;18.65;56.71;95861.80;105460;1257;74540;-36
2023/11/28 14:49:22;;;;;;;5.00;3.20;;;;;;;18.64;56.86;95862.11;105500;1261;64617;-35
2023/11/28 14:51:51;;;;;;;4.40;3.10;;;;;;;18.62;56.83;95861.89;105289;1257;73638;-34
2023/11/28 14:54:19;;;;;;;5.10;3.10;;;;;;;18.62;57.17;95859.48;105484;1260;60415;-35
2023/11/28 14:56:46;;;;;;;6.40;3.30;;;;;;;18.61;57.10;95860.73;105584;1257;60530;-36
2023/11/28 14:59:14;;;;;;;5.20;3.10;;;;;;;18.61;57.12;95858.64;105343;1257;74654;-37
2023/11/28 15:01:42;;;;;;;4.30;3.10;;;;;;;18.60;57.08;95854.70;105481;1260;64746;-35
2023/11/28 15:04:09;;;;;;;3.50;3.10;;;;;;;18.60;57.02;95852.29;105557;1257;74556;-36
2023/11/28 15:06:36;;;;;;;4.90;3.40;;;;;;;18.59;56.88;95854.93;105635;1259;60549;-35
2023/11/28 15:09:04;;;;;;;4.80;2.90;;;;;;;18.57;56.86;95859.89;105542;1256;60494;-37
2023/11/28 15:11:32;;;;;;;5.30;3.20;;;;;;;18.56;56.85;95854.46;105445;1256;74588;-35
2023/11/28 15:13:59;;;;;;;3.80;2.90;;;;;;;18.54;56.75;95855.09;105404;1260;67084;-35
2023/11/28 15:16:26;;;;;;;4.50;3.00;;;;;;;18.53;56.59;95860.15;105522;1258;72824;-35
2023/11/28 15:18:54;;;;;;;3.50;3.00;;;;;;;18.51;56.67;95860.23;105331;1260;60562;-35
2023/11/28 15:21:21;;;;;;;4.90;3.30;;;;;;;18.50;56.60;95858.36;105340;1257;60423;-36
2023/11/28 15:23:49;;;;;;;3.90;2.90;;;;;;;18.49;56.51;95858.98;105441;1257;74855;-35
2023/11/28 15:26:16;;;;;;;4.70;3.20;;;;;;;18.48;56.53;95859.52;105586;1260;67641;-35
2023/11/28 15:28:44;;;;;;;3.60;3.10;;;;;;;18.47;56.50;95853.19;105431;1259;72447;-36
2023/11/28 15:31:12;;;;;;;3.50;3.00;;;;;;;18.46;56.48;95855.42;105514;1260;60435;-36
2023/11/28 15:33:40;;;;;;;4.90;3.40;;;;;;;18.44;56.43;95849.93;105487;1257;60625;-37
2023/11/28 15:36:09;;;;;;;3.70;3.00;;;;;;;18.43;56.40;95851.31;105336;1257;73803;-36
2023/11/28 15:38:36;;;;;;;5.10;3.20;;;;;;;18.41;56.42;95846.67;106157;1257;66413;-36
2023/11/28 15:41:04;;;;;;;3.60;2.90;;;;;;;18.40;56.29;95845.66;105431;1258;73081;-36
2023/11/28 15:43:32;;;;;;;5.30;3.00;;;;;;;18.39;56.35;95845.05;105309;1269;60442;-36
2023/11/28 15:45:59;;;;;;;5.60;3.00;;;;;;;18.38;56.26;95843.66;105456;1257;60549;-37
2023/11/28 15:48:26;;;;;;;3.70;3.00;;;;;;;18.37;56.27;95842.04;105591;1260;74569;-36
2023/11/28 15:50:54;;;;;;;5.40;2.70;;;;;;;18.36;56.17;95839.33;105596;1261;65636;-36
2023/11/28 15:53:21;;;;;;;3.90;2.90;;;;;;;18.35;56.13;95842.64;105335;1255;73104;-36
2023/11/28 15:55:49;;;;;;;4.60;3.20;;;;;;;18.34;56.04;95844.52;105554;1258;60387;-36
2023/11/28 15:58:17;;;;;;;3.00;2.60;;;;;;;18.33;56.03;95846.60;105450;1254;60576;-36
2023/11/28 16:00:44;;;;;;;6.40;3.10;;;;;;;18.32;56.10;95842.89;105860;1254;73717;-36
2023/11/28 16:03:13;;;;;;;3.40;3.00;;;;;;;18.31;56.04;95842.52;105537;1259;67292;-36
2023/11/28 16:05:41;;;;;;;4.30;3.10;;;;;;;18.30;55.97;95836.86;105803;1254;72897;-36
2023/11/28 16:08:09;;;;;;;3.00;2.70;;;;;;;18.29;56.05;95831.37;105503;1254;60376;-36
2023/11/28 16:10:36;;;;;;;3.40;3.10;;;;;;;18.27;55.97;95832.38;105935;1254;61361;-37
2023/11/28 16:13:03;;;;;;;3.50;2.60;;;;;;;18.27;55.92;95831.69;105421;1257;73579;-36
2023/11/28 16:15:32;;;;;;;4.20;3.00;;;;;;;18.26;55.91;95830.77;105389;1259;67068;-36
2023/11/28 16:17:59;;;;;;;5.20;2.90;;;;;;;18.25;55.89;95826.73;105455;1260;72903;-35
2023/11/28 16:20:27;;;;;;;3.50;2.80;;;;;;;18.24;55.83;95820.77;105402;1259;60533;-35
2023/11/28 16:23:00;;;;;;;3.60;2.80;;;;;;;18.23;55.84;95818.92;105434;1255;60981;-34
2023/11/28 16:25:27;;;;;;;4.70;3.00;;;;;;;18.22;55.80;95813.98;106197;1254;74838;-35
2023/11/28 16:27:55;;;;;;;3.50;3.00;;;;;;;18.21;55.87;95811.02;105415;1260;65808;-35
2023/11/28 16:30:22;;;;;;;3.60;3.00;;;;;;;18.20;55.78;95810.26;105391;1254;73038;-36
2023/11/28 16:32:50;;;;;;;3.20;2.80;;;;;;;18.19;55.81;95807.09;105489;1259;60546;-36
2023/11/28 16:35:18;;;;;;;3.20;2.70;;;;;;;18.18;55.80;95802.67;105456;1254;60454;-36
2023/11/28 16:37:45;;;;;;;3.30;2.80;;;;;;;18.17;55.78;95801.29;105463;1256;74611;-37
2023/11/28 16:40:13;;;;;;;4.20;2.70;;;;;;;18.16;55.81;95800.91;105449;1259;65608;-36
2023/11/28 16:42:41;;;;;;;3.40;2.90;;;;;;;18.16;55.76;95797.20;105512;1254;72568;-36
2023/11/28 16:45:09;;;;;;;3.20;2.60;;;;;;;18.15;55.77;95796.48;105566;1254;60474;-36
2023/11/28 16:47:38;;;;;;;3.70;2.90;;;;;;;18.14;55.72;95793.77;105467;1254;60552;-38
2023/11/28 16:50:06;;;;;;;3.40;2.80;;;;;;;18.13;55.66;95792.16;105460;1259;74646;-36
2023/11/28 16:52:34;;;;;;;3.50;2.80;;;;;;;18.13;55.73;95793.48;105399;1254;67064;-37
2023/11/28 16:55:02;;;;;;;3.70;2.50;;;;;;;18.12;55.64;95791.08;106052;1254;72385;-35
2023/11/28 16:57:30;;;;;;;3.20;2.90;;;;;;;18.11;55.57;95787.83;109283;1254;60030;-37
2023/11/28 16:59:57;;;;;;;3.00;2.70;;;;;;;18.11;55.62;95788.23;106299;1259;60430;-37
2023/11/28 17:02:25;;;;;;;4.00;2.90;;;;;;;18.11;55.58;95787.15;105618;1259;73802;-37
2023/11/28 17:04:53;;;;;;;2.90;2.60;;;;;;;18.10;55.57;95781.56;105610;1259;66617;-39
2023/11/28 17:07:21;;;;;;;3.10;2.80;;;;;;;18.10;55.50;95777.77;105647;1254;72597;-35
2023/11/28 17:09:48;;;;;;;2.90;2.50;;;;;;;18.09;55.59;95778.48;105401;1259;60544;-37
2023/11/28 17:12:15;;;;;;;3.20;2.70;;;;;;;18.09;55.40;95779.11;105393;1256;60527;-37
2023/11/28 17:14:43;;;;;;;4.30;2.90;;;;;;;18.08;55.45;95771.90;105402;1256;73924;-37
2023/11/28 17:17:10;;;;;;;2.70;2.40;;;;;;;18.07;55.42;95768.88;105550;1260;67104;-37
2023/11/28 17:19:39;;;;;;;3.00;2.70;;;;;;;18.07;55.45;95767.96;105380;1254;72198;-37
2023/11/28 17:22:06;;;;;;;3.80;2.50;;;;;;;18.06;55.41;95764.25;105601;1260;60435;-35
2023/11/28 17:24:35;;;;;;;3.70;2.60;;;;;;;18.05;55.38;95762.77;105527;1259;60441;-38
2023/11/28 17:27:02;;;;;;;4.60;2.50;;;;;;;18.04;55.43;95764.79;105452;1254;74903;-36
2023/11/28 17:29:30;;;;;;;3.20;2.80;;;;;;;18.03;55.32;95758.98;105509;1259;67228;-38
2023/11/28 17:31:57;;;;;;;2.80;2.50;;;;;;;18.02;55.37;95754.64;105597;1254;72344;-36
2023/11/28 17:34:26;;;;;;;3.00;2.40;;;;;;;18.02;55.43;95754.03;105605;1259;60442;-36
2023/11/28 17:36:53;;;;;;;5.20;2.60;;;;;;;18.02;55.36;95752.26;105572;1254;60387;-37
2023/11/28 17:39:20;;;;;;;3.60;2.50;;;;;;;18.01;55.37;95749.48;105446;1259;74799;-34
2023/11/28 17:41:49;;;;;;;3.60;2.70;;;;;;;18.00;55.32;95744.83;105466;1259;64925;-37
2023/11/28 17:44:16;;;;;;;4.40;2.40;;;;;;;17.98;55.28;95738.80;105475;1254;73463;-36
2023/11/28 17:46:43;;;;;;;3.70;2.50;;;;;;;17.98;55.37;95741.66;105522;1258;60569;-36
2023/11/28 17:49:15;;;;;;;3.30;2.60;;;;;;;17.97;55.35;95744.85;105429;1255;60377;-37
2023/11/28 17:51:48;;;;;;;5.00;2.80;;;;;;;17.97;55.37;95746.94;105413;1261;73536;-36
2023/11/28 17:54:16;;;;;;;5.70;2.70;;;;;;;17.95;55.27;95743.21;105471;1260;67449;-35
2023/11/28 17:56:43;;;;;;;2.90;2.30;;;;;;;17.94;55.30;95745.94;105585;1254;73096;-34
2023/11/28 17:59:11;;;;;;;3.30;2.70;;;;;;;17.94;55.25;95747.25;105524;1260;60543;-35
2023/11/28 18:01:39;;;;;;;2.60;2.40;;;;;;;17.94;55.27;95750.04;105540;1255;61086;-35
2023/11/28 18:04:07;;;;;;;2.80;2.50;;;;;;;17.93;55.27;95748.10;105237;1254;74862;-38
2023/11/28 18:06:35;;;;;;;3.00;2.50;;;;;;;17.92;55.27;95750.35;105570;1259;65879;-36
2023/11/28 18:09:03;;;;;;;3.50;2.50;;;;;;;17.92;55.21;95749.98;105478;1254;72633;-36
2023/11/28 18:11:31;;;;;;;3.50;2.60;;;;;;;17.91;55.23;95746.64;105491;1256;60438;-38
2023/11/28 18:13:59;;;;;;;2.40;2.20;;;;;;;17.91;55.25;95741.36;105421;1260;60314;-36
2023/11/28 18:16:27;;;;;;;2.90;2.50;;;;;;;17.90;55.19;95741.08;105363;1258;74708;-38
2023/11/28 18:18:55;;;;;;;3.80;3.00;;;;;;;17.90;55.22;95732.80;105526;1259;67193;-36
2023/11/28 18:21:23;;;;;;;3.70;2.50;;;;;;;17.89;55.15;95726.14;105321;1254;73532;-37
2023/11/28 18:23:54;;;;;;;3.00;2.50;;;;;;;17.88;55.17;95722.66;105475;1254;61459;-37
2023/11/28 18:26:22;;;;;;;2.90;2.70;;;;;;;17.87;55.13;95721.66;105380;1254;60348;-37
2023/11/28 18:28:49;;;;;;;2.70;2.20;;;;;;;17.86;55.10;95722.28;105317;1258;73849;-37